sensor_id;sensor_type;location;lat;lon;timestamp;temperature;humidity
45735;DHT22;31446;49.632;8.328;2023-07-29T00:14:13;18.00;99.90
45735;DHT22;31446;49.632;8.328;2023-07-29T00:29:20;18.10;99.90
45735;DHT22;31446;49.632;8.328;2023-07-29T00:44:26;18.20;99.90
45735;DHT22;31446;49.632;8.328;2023-07-29T00:59:35;18.20;99.90
45735;DHT22;31446;49.632;8.328;2023-07-29T01:14:47;18.20;99.90
45735;DHT22;31446;49.632;8.328;2023-07-29T01:29:57;18.30;99.90
45735;DHT22;31446;49.632;8.328;2023-07-29T01:45:05;18.30;99.90
45735;DHT22;31446;49.632;8.328;2023-07-29T02:00:12;18.50;99.90
45735;DHT22;31446;49.632;8.328;2023-07-29T02:15:19;18.60;99.90
45735;DHT22;31446;49.632;8.328;2023-07-29T02:30:25;18.40;99.90
45735;DHT22;31446;49.632;8.328;2023-07-29T02:45:32;18.30;99.90
45735;DHT22;31446;49.632;8.328;2023-07-29T03:00:38;18.20;99.90
45735;DHT22;31446;49.632;8.328;2023-07-29T03:15:45;18.20;99.90
45735;DHT22;31446;49.632;8.328;2023-07-29T03:30:52;18.10;99.90
45735;DHT22;31446;49.632;8.328;2023-07-29T03:45:58;18.10;99.90
45735;DHT22;31446;49.632;8.328;2023-07-29T04:01:05;18.10;99.90
45735;DHT22;31446;49.632;8.328;2023-07-29T04:16:11;18.10;99.90
45735;DHT22;31446;49.632;8.328;2023-07-29T04:31:18;18.20;99.90
45735;DHT22;31446;49.632;8.328;2023-07-29T04:46:24;18.30;99.90
45735;DHT22;31446;49.632;8.328;2023-07-29T05:01:31;18.50;99.90
45735;DHT22;31446;49.632;8.328;2023-07-29T05:16:37;19.10;99.90
45735;DHT22;31446;49.632;8.328;2023-07-29T05:31:43;19.20;99.90
45735;DHT22;31446;49.632;8.328;2023-07-29T05:46:50;19.30;99.90
45735;DHT22;31446;49.632;8.328;2023-07-29T06:01:56;19.30;99.90
45735;DHT22;31446;49.632;8.328;2023-07-29T06:17:03;19.50;99.90
45735;DHT22;31446;49.632;8.328;2023-07-29T06:32:10;20.10;99.90
45735;DHT22;31446;49.632;8.328;2023-07-29T06:47:16;19.90;99.90
45735;DHT22;31446;49.632;8.328;2023-07-29T07:02:23;20.00;99.90
45735;DHT22;31446;49.632;8.328;2023-07-29T07:17:29;20.40;99.90
45735;DHT22;31446;49.632;8.328;2023-07-29T07:32:36;20.30;99.90
45735;DHT22;31446;49.632;8.328;2023-07-29T07:47:42;20.30;99.90
45735;DHT22;31446;49.632;8.328;2023-07-29T08:02:49;19.80;99.90
45735;DHT22;31446;49.632;8.328;2023-07-29T08:17:55;19.50;99.90
45735;DHT22;31446;49.632;8.328;2023-07-29T08:33:02;20.20;99.90
45735;DHT22;31446;49.632;8.328;2023-07-29T08:48:10;21.30;99.90
45735;DHT22;31446;49.632;8.328;2023-07-29T09:03:17;21.70;99.90
45735;DHT22;31446;49.632;8.328;2023-07-29T09:18:26;22.20;99.90
45735;DHT22;31446;49.632;8.328;2023-07-29T09:33:34;23.40;99.90
45735;DHT22;31446;49.632;8.328;2023-07-29T09:48:42;24.10;99.90
45735;DHT22;31446;49.632;8.328;2023-07-29T10:03:50;24.50;99.90
45735;DHT22;31446;49.632;8.328;2023-07-29T10:19:00;25.60;99.90
45735;DHT22;31446;49.632;8.328;2023-07-29T10:34:09;26.10;99.90
45735;DHT22;31446;49.632;8.328;2023-07-29T10:49:23;26.30;99.90
45735;DHT22;31446;49.632;8.328;2023-07-29T11:04:46;26.20;99.90
45735;DHT22;31446;49.632;8.328;2023-07-29T11:19:54;26.80;99.90
45735;DHT22;31446;49.632;8.328;2023-07-29T11:35:05;26.80;99.90
45735;DHT22;31446;49.632;8.328;2023-07-29T11:50:14;27.60;99.90
45735;DHT22;31446;49.632;8.328;2023-07-29T12:05:21;27.70;99.90
45735;DHT22;31446;49.632;8.328;2023-07-29T12:20:31;27.60;99.90
45735;DHT22;31446;49.632;8.328;2023-07-29T12:35:40;27.40;99.90
45735;DHT22;31446;49.632;8.328;2023-07-29T12:50:47;26.90;99.90
45735;DHT22;31446;49.632;8.328;2023-07-29T13:05:55;26.80;99.90
45735;DHT22;31446;49.632;8.328;2023-07-29T13:21:01;27.10;99.90
45735;DHT22;31446;49.632;8.328;2023-07-29T13:36:08;26.50;99.90
45735;DHT22;31446;49.632;8.328;2023-07-29T13:51:14;27.10;99.90
45735;DHT22;31446;49.632;8.328;2023-07-29T14:06:21;27.20;99.90
45735;DHT22;31446;49.632;8.328;2023-07-29T14:21:27;27.70;99.90
45735;DHT22;31446;49.632;8.328;2023-07-29T14:36:34;27.80;99.90
45735;DHT22;31446;49.632;8.328;2023-07-29T14:51:40;27.40;99.90
45735;DHT22;31446;49.632;8.328;2023-07-29T15:06:47;27.80;99.90
45735;DHT22;31446;49.632;8.328;2023-07-29T15:21:53;27.40;99.90
45735;DHT22;31446;49.632;8.328;2023-07-29T15:37:01;27.10;99.90
45735;DHT22;31446;49.632;8.328;2023-07-29T15:52:08;27.00;99.90
45735;DHT22;31446;49.632;8.328;2023-07-29T16:07:17;27.10;99.90
45735;DHT22;31446;49.632;8.328;2023-07-29T16:22:23;26.70;99.90
45735;DHT22;31446;49.632;8.328;2023-07-29T16:37:30;26.90;99.90
45735;DHT22;31446;49.632;8.328;2023-07-29T16:52:36;26.60;99.90
45735;DHT22;31446;49.632;8.328;2023-07-29T17:07:43;26.50;99.90
45735;DHT22;31446;49.632;8.328;2023-07-29T17:22:49;26.40;99.90
45735;DHT22;31446;49.632;8.328;2023-07-29T17:37:56;26.70;99.90
45735;DHT22;31446;49.632;8.328;2023-07-29T17:53:02;26.70;99.90
45735;DHT22;31446;49.632;8.328;2023-07-29T18:08:09;26.20;99.90
45735;DHT22;31446;49.632;8.328;2023-07-29T18:23:15;26.20;99.90
45735;DHT22;31446;49.632;8.328;2023-07-29T18:38:25;26.10;99.90
45735;DHT22;31446;49.632;8.328;2023-07-29T18:53:31;25.20;99.90
45735;DHT22;31446;49.632;8.328;2023-07-29T19:08:37;24.20;99.90
45735;DHT22;31446;49.632;8.328;2023-07-29T19:23:44;23.30;99.90
45735;DHT22;31446;49.632;8.328;2023-07-29T19:38:50;22.60;99.90
45735;DHT22;31446;49.632;8.328;2023-07-29T19:53:57;22.00;99.90
45735;DHT22;31446;49.632;8.328;2023-07-29T20:09:03;21.70;99.90
45735;DHT22;31446;49.632;8.328;2023-07-29T20:24:10;21.50;99.90
45735;DHT22;31446;49.632;8.328;2023-07-29T20:39:16;21.20;99.90
45735;DHT22;31446;49.632;8.328;2023-07-29T20:54:23;21.00;99.90
45735;DHT22;31446;49.632;8.328;2023-07-29T21:09:30;21.00;99.90
45735;DHT22;31446;49.632;8.328;2023-07-29T21:24:36;21.00;99.90
45735;DHT22;31446;49.632;8.328;2023-07-29T21:39:43;21.00;99.90
45735;DHT22;31446;49.632;8.328;2023-07-29T21:55:01;21.00;99.90
45735;DHT22;31446;49.632;8.328;2023-07-29T22:10:09;20.90;99.90
45735;DHT22;31446;49.632;8.328;2023-07-29T22:25:15;20.80;99.90
45735;DHT22;31446;49.632;8.328;2023-07-29T22:40:22;20.70;99.90
45735;DHT22;31446;49.632;8.328;2023-07-29T22:55:28;20.60;99.90
45735;DHT22;31446;49.632;8.328;2023-07-29T23:10:34;20.50;99.90
45735;DHT22;31446;49.632;8.328;2023-07-29T23:25:41;20.10;99.90
45735;DHT22;31446;49.632;8.328;2023-07-29T23:40:47;19.80;99.90
45735;DHT22;31446;49.632;8.328;2023-07-29T23:55:54;19.40;99.90
